sensor_id;sensor_type;location;lat;lon;timestamp;temperature;humidity
73360;DHT22;63092;43.582;19.528;2023-07-13T00:00:37;22.60;97.60
73360;DHT22;63092;43.582;19.528;2023-07-13T00:03:04;22.60;97.60
73360;DHT22;63092;43.582;19.528;2023-07-13T00:05:30;22.60;97.60
73360;DHT22;63092;43.582;19.528;2023-07-13T00:07:57;22.60;97.60
73360;DHT22;63092;43.582;19.528;2023-07-13T00:10:23;22.60;97.70
73360;DHT22;63092;43.582;19.528;2023-07-13T00:12:49;22.60;97.60
73360;DHT22;63092;43.582;19.528;2023-07-13T00:15:21;22.60;97.80
73360;DHT22;63092;43.582;19.528;2023-07-13T00:17:52;22.60;97.70
73360;DHT22;63092;43.582;19.528;2023-07-13T00:20:21;22.60;97.80
73360;DHT22;63092;43.582;19.528;2023-07-13T00:22:57;22.60;97.70
73360;DHT22;63092;43.582;19.528;2023-07-13T00:25:25;22.50;97.80
73360;DHT22;63092;43.582;19.528;2023-07-13T00:27:51;22.50;97.70
73360;DHT22;63092;43.582;19.528;2023-07-13T00:30:17;22.40;97.50
73360;DHT22;63092;43.582;19.528;2023-07-13T00:32:43;22.40;97.60
73360;DHT22;63092;43.582;19.528;2023-07-13T00:35:09;22.40;97.60
73360;DHT22;63092;43.582;19.528;2023-07-13T00:37:35;22.40;97.70
73360;DHT22;63092;43.582;19.528;2023-07-13T00:40:05;22.30;97.70
73360;DHT22;63092;43.582;19.528;2023-07-13T00:42:31;22.30;97.70
73360;DHT22;63092;43.582;19.528;2023-07-13T00:47:41;22.30;97.80
73360;DHT22;63092;43.582;19.528;2023-07-13T00:50:10;22.30;97.80
73360;DHT22;63092;43.582;19.528;2023-07-13T00:52:41;22.20;97.90
73360;DHT22;63092;43.582;19.528;2023-07-13T00:55:09;22.20;97.90
73360;DHT22;63092;43.582;19.528;2023-07-13T00:57:36;22.20;97.90
73360;DHT22;63092;43.582;19.528;2023-07-13T01:00:04;22.10;98.00
73360;DHT22;63092;43.582;19.528;2023-07-13T01:02:33;22.10;97.90
73360;DHT22;63092;43.582;19.528;2023-07-13T01:04:59;22.10;97.90
73360;DHT22;63092;43.582;19.528;2023-07-13T01:07:27;22.00;97.70
73360;DHT22;63092;43.582;19.528;2023-07-13T01:09:53;22.00;97.70
73360;DHT22;63092;43.582;19.528;2023-07-13T01:12:19;22.00;97.80
73360;DHT22;63092;43.582;19.528;2023-07-13T01:14:44;22.00;97.90
73360;DHT22;63092;43.582;19.528;2023-07-13T01:17:10;21.90;98.00
73360;DHT22;63092;43.582;19.528;2023-07-13T01:19:40;21.90;98.00
73360;DHT22;63092;43.582;19.528;2023-07-13T01:24:38;21.80;97.90
73360;DHT22;63092;43.582;19.528;2023-07-13T01:27:07;21.80;97.80
73360;DHT22;63092;43.582;19.528;2023-07-13T01:29:36;21.80;97.80
73360;DHT22;63092;43.582;19.528;2023-07-13T01:32:09;21.70;97.90
73360;DHT22;63092;43.582;19.528;2023-07-13T01:34:36;21.70;97.90
73360;DHT22;63092;43.582;19.528;2023-07-13T01:37:03;21.70;98.20
73360;DHT22;63092;43.582;19.528;2023-07-13T01:39:30;21.70;98.10
73360;DHT22;63092;43.582;19.528;2023-07-13T01:41:55;21.60;98.20
73360;DHT22;63092;43.582;19.528;2023-07-13T01:44:21;21.60;98.20
73360;DHT22;63092;43.582;19.528;2023-07-13T01:46:47;21.60;98.30
73360;DHT22;63092;43.582;19.528;2023-07-13T01:49:12;21.50;98.30
73360;DHT22;63092;43.582;19.528;2023-07-13T01:51:38;21.50;98.40
73360;DHT22;63092;43.582;19.528;2023-07-13T01:54:04;21.50;98.50
73360;DHT22;63092;43.582;19.528;2023-07-13T01:56:30;21.50;98.50
73360;DHT22;63092;43.582;19.528;2023-07-13T01:58:55;21.40;98.70
73360;DHT22;63092;43.582;19.528;2023-07-13T02:01:22;21.30;98.90
73360;DHT22;63092;43.582;19.528;2023-07-13T02:03:48;21.20;99.00
73360;DHT22;63092;43.582;19.528;2023-07-13T02:06:13;21.30;99.00
73360;DHT22;63092;43.582;19.528;2023-07-13T02:08:40;21.30;98.90
73360;DHT22;63092;43.582;19.528;2023-07-13T02:11:07;21.30;98.90
73360;DHT22;63092;43.582;19.528;2023-07-13T02:13:32;21.30;98.70
73360;DHT22;63092;43.582;19.528;2023-07-13T02:15:58;21.30;98.70
73360;DHT22;63092;43.582;19.528;2023-07-13T02:18:24;21.30;98.80
73360;DHT22;63092;43.582;19.528;2023-07-13T02:20:50;21.20;98.90
73360;DHT22;63092;43.582;19.528;2023-07-13T02:23:15;21.00;99.30
73360;DHT22;63092;43.582;19.528;2023-07-13T02:25:41;21.00;99.20
73360;DHT22;63092;43.582;19.528;2023-07-13T02:28:07;21.00;99.40
73360;DHT22;63092;43.582;19.528;2023-07-13T02:30:34;21.00;99.40
73360;DHT22;63092;43.582;19.528;2023-07-13T02:33:00;21.00;99.40
73360;DHT22;63092;43.582;19.528;2023-07-13T02:35:26;21.00;99.60
73360;DHT22;63092;43.582;19.528;2023-07-13T02:37:51;21.00;99.50
73360;DHT22;63092;43.582;19.528;2023-07-13T02:40:17;21.00;99.20
73360;DHT22;63092;43.582;19.528;2023-07-13T02:42:43;21.00;99.10
73360;DHT22;63092;43.582;19.528;2023-07-13T02:45:09;21.00;99.20
73360;DHT22;63092;43.582;19.528;2023-07-13T02:47:36;20.90;99.10
73360;DHT22;63092;43.582;19.528;2023-07-13T02:50:02;20.90;98.90
73360;DHT22;63092;43.582;19.528;2023-07-13T02:52:28;20.90;99.00
73360;DHT22;63092;43.582;19.528;2023-07-13T02:54:54;20.90;99.10
73360;DHT22;63092;43.582;19.528;2023-07-13T02:57:20;20.90;99.20
73360;DHT22;63092;43.582;19.528;2023-07-13T02:59:46;20.90;99.10
73360;DHT22;63092;43.582;19.528;2023-07-13T03:02:11;20.80;99.40
73360;DHT22;63092;43.582;19.528;2023-07-13T03:04:37;20.80;99.50
73360;DHT22;63092;43.582;19.528;2023-07-13T03:07:03;20.60;99.60
73360;DHT22;63092;43.582;19.528;2023-07-13T03:09:30;20.70;99.70
73360;DHT22;63092;43.582;19.528;2023-07-13T03:11:56;20.50;99.90
73360;DHT22;63092;43.582;19.528;2023-07-13T03:14:23;20.40;99.90
73360;DHT22;63092;43.582;19.528;2023-07-13T03:16:49;20.40;99.90
73360;DHT22;63092;43.582;19.528;2023-07-13T03:19:15;20.40;99.90
73360;DHT22;63092;43.582;19.528;2023-07-13T03:21:40;20.40;99.90
73360;DHT22;63092;43.582;19.528;2023-07-13T03:24:06;20.50;99.90
73360;DHT22;63092;43.582;19.528;2023-07-13T03:26:32;20.50;99.90
73360;DHT22;63092;43.582;19.528;2023-07-13T03:28:58;20.60;99.70
73360;DHT22;63092;43.582;19.528;2023-07-13T03:31:30;20.60;99.50
73360;DHT22;63092;43.582;19.528;2023-07-13T03:33:56;20.60;99.50
73360;DHT22;63092;43.582;19.528;2023-07-13T03:36:26;20.60;99.50
73360;DHT22;63092;43.582;19.528;2023-07-13T03:38:55;20.70;99.50
73360;DHT22;63092;43.582;19.528;2023-07-13T03:41:22;20.70;99.40
73360;DHT22;63092;43.582;19.528;2023-07-13T03:43:48;20.70;99.50
73360;DHT22;63092;43.582;19.528;2023-07-13T03:46:15;20.70;99.40
73360;DHT22;63092;43.582;19.528;2023-07-13T03:48:41;20.70;99.30
73360;DHT22;63092;43.582;19.528;2023-07-13T03:51:09;20.70;99.30
73360;DHT22;63092;43.582;19.528;2023-07-13T03:53:39;20.70;99.20
73360;DHT22;63092;43.582;19.528;2023-07-13T03:56:06;20.70;99.10
73360;DHT22;63092;43.582;19.528;2023-07-13T03:58:35;20.70;99.20
73360;DHT22;63092;43.582;19.528;2023-07-13T04:01:04;20.70;99.10
73360;DHT22;63092;43.582;19.528;2023-07-13T04:03:31;20.70;99.30
73360;DHT22;63092;43.582;19.528;2023-07-13T04:06:03;20.70;99.30
73360;DHT22;63092;43.582;19.528;2023-07-13T04:08:31;20.80;99.40
73360;DHT22;63092;43.582;19.528;2023-07-13T04:10:58;20.80;99.20
73360;DHT22;63092;43.582;19.528;2023-07-13T04:13:25;20.80;99.20
73360;DHT22;63092;43.582;19.528;2023-07-13T04:15:51;20.80;99.00
73360;DHT22;63092;43.582;19.528;2023-07-13T04:18:18;20.90;98.90
73360;DHT22;63092;43.582;19.528;2023-07-13T04:20:48;20.90;98.70
73360;DHT22;63092;43.582;19.528;2023-07-13T04:23:15;20.90;98.70
73360;DHT22;63092;43.582;19.528;2023-07-13T04:25:48;21.00;98.80
73360;DHT22;63092;43.582;19.528;2023-07-13T04:28:19;21.00;98.90
73360;DHT22;63092;43.582;19.528;2023-07-13T04:30:45;21.00;98.70
73360;DHT22;63092;43.582;19.528;2023-07-13T04:33:10;21.00;98.70
73360;DHT22;63092;43.582;19.528;2023-07-13T04:35:36;21.00;98.70
73360;DHT22;63092;43.582;19.528;2023-07-13T04:38:03;21.00;98.70
73360;DHT22;63092;43.582;19.528;2023-07-13T04:40:29;20.90;98.80
73360;DHT22;63092;43.582;19.528;2023-07-13T04:42:55;20.80;99.30
73360;DHT22;63092;43.582;19.528;2023-07-13T04:45:21;20.60;99.40
73360;DHT22;63092;43.582;19.528;2023-07-13T04:47:49;20.70;99.50
73360;DHT22;63092;43.582;19.528;2023-07-13T04:50:15;20.70;99.60
73360;DHT22;63092;43.582;19.528;2023-07-13T04:52:45;20.80;99.50
73360;DHT22;63092;43.582;19.528;2023-07-13T04:55:11;20.90;99.60
73360;DHT22;63092;43.582;19.528;2023-07-13T04:57:37;21.00;99.40
73360;DHT22;63092;43.582;19.528;2023-07-13T05:00:03;20.90;99.50
73360;DHT22;63092;43.582;19.528;2023-07-13T05:02:31;20.80;99.80
73360;DHT22;63092;43.582;19.528;2023-07-13T05:04:58;20.70;99.90
73360;DHT22;63092;43.582;19.528;2023-07-13T05:07:24;20.60;99.90
73360;DHT22;63092;43.582;19.528;2023-07-13T05:09:50;20.60;99.90
73360;DHT22;63092;43.582;19.528;2023-07-13T05:12:16;20.70;99.90
73360;DHT22;63092;43.582;19.528;2023-07-13T05:14:41;20.60;99.90
73360;DHT22;63092;43.582;19.528;2023-07-13T05:17:07;20.60;99.90
73360;DHT22;63092;43.582;19.528;2023-07-13T05:19:33;20.70;99.90
73360;DHT22;63092;43.582;19.528;2023-07-13T05:21:59;20.70;99.90
73360;DHT22;63092;43.582;19.528;2023-07-13T05:24:25;20.80;99.90
73360;DHT22;63092;43.582;19.528;2023-07-13T05:26:50;21.10;99.90
73360;DHT22;63092;43.582;19.528;2023-07-13T05:31:42;21.60;99.50
73360;DHT22;63092;43.582;19.528;2023-07-13T05:34:08;21.70;99.60
73360;DHT22;63092;43.582;19.528;2023-07-13T05:36:33;22.00;99.10
73360;DHT22;63092;43.582;19.528;2023-07-13T05:38:59;22.30;98.40
73360;DHT22;63092;43.582;19.528;2023-07-13T05:41:25;22.20;98.00
73360;DHT22;63092;43.582;19.528;2023-07-13T05:43:51;22.50;97.90
73360;DHT22;63092;43.582;19.528;2023-07-13T05:46:16;22.60;97.60
73360;DHT22;63092;43.582;19.528;2023-07-13T05:48:42;22.70;97.50
73360;DHT22;63092;43.582;19.528;2023-07-13T05:51:08;22.70;97.20
73360;DHT22;63092;43.582;19.528;2023-07-13T05:53:34;22.70;97.50
73360;DHT22;63092;43.582;19.528;2023-07-13T05:56:01;22.80;97.60
73360;DHT22;63092;43.582;19.528;2023-07-13T05:58:27;22.60;97.90
73360;DHT22;63092;43.582;19.528;2023-07-13T06:01:08;22.70;97.80
73360;DHT22;63092;43.582;19.528;2023-07-13T06:03:34;22.80;97.80
73360;DHT22;63092;43.582;19.528;2023-07-13T06:06:00;22.90;97.90
73360;DHT22;63092;43.582;19.528;2023-07-13T06:08:26;22.90;97.60
73360;DHT22;63092;43.582;19.528;2023-07-13T06:10:52;23.00;97.50
73360;DHT22;63092;43.582;19.528;2023-07-13T06:13:18;23.20;97.30
73360;DHT22;63092;43.582;19.528;2023-07-13T06:15:51;23.20;97.20
73360;DHT22;63092;43.582;19.528;2023-07-13T06:18:17;23.10;97.50
73360;DHT22;63092;43.582;19.528;2023-07-13T06:20:42;23.00;97.70
73360;DHT22;63092;43.582;19.528;2023-07-13T06:23:08;23.00;97.60
73360;DHT22;63092;43.582;19.528;2023-07-13T06:25:34;23.20;97.50
73360;DHT22;63092;43.582;19.528;2023-07-13T06:28:00;23.30;97.20
73360;DHT22;63092;43.582;19.528;2023-07-13T06:30:26;23.40;97.40
73360;DHT22;63092;43.582;19.528;2023-07-13T06:32:52;23.30;97.50
73360;DHT22;63092;43.582;19.528;2023-07-13T06:35:18;23.40;97.60
73360;DHT22;63092;43.582;19.528;2023-07-13T06:37:44;23.30;97.30
73360;DHT22;63092;43.582;19.528;2023-07-13T06:40:10;23.30;97.10
73360;DHT22;63092;43.582;19.528;2023-07-13T06:42:36;23.30;97.10
73360;DHT22;63092;43.582;19.528;2023-07-13T06:45:04;23.50;96.80
73360;DHT22;63092;43.582;19.528;2023-07-13T06:47:30;23.70;96.90
73360;DHT22;63092;43.582;19.528;2023-07-13T06:49:55;23.80;96.00
73360;DHT22;63092;43.582;19.528;2023-07-13T06:52:21;23.90;96.20
73360;DHT22;63092;43.582;19.528;2023-07-13T06:54:47;24.20;96.20
73360;DHT22;63092;43.582;19.528;2023-07-13T06:57:13;24.50;95.50
73360;DHT22;63092;43.582;19.528;2023-07-13T06:59:38;24.70;95.40
73360;DHT22;63092;43.582;19.528;2023-07-13T07:06:56;25.30;99.90
73360;DHT22;63092;43.582;19.528;2023-07-13T07:11:48;25.30;92.90
73360;DHT22;63092;43.582;19.528;2023-07-13T07:14:14;25.40;92.70
73360;DHT22;63092;43.582;19.528;2023-07-13T07:16:40;25.50;92.90
73360;DHT22;63092;43.582;19.528;2023-07-13T07:21:32;25.80;92.10
73360;DHT22;63092;43.582;19.528;2023-07-13T07:23:57;25.80;92.10
73360;DHT22;63092;43.582;19.528;2023-07-13T07:26:25;25.90;92.00
73360;DHT22;63092;43.582;19.528;2023-07-13T07:28:51;26.00;91.60
73360;DHT22;63092;43.582;19.528;2023-07-13T07:31:17;26.00;91.40
73360;DHT22;63092;43.582;19.528;2023-07-13T07:33:42;25.90;91.10
73360;DHT22;63092;43.582;19.528;2023-07-13T07:36:08;26.00;91.50
73360;DHT22;63092;43.582;19.528;2023-07-13T07:38:34;25.90;91.60
73360;DHT22;63092;43.582;19.528;2023-07-13T07:41:03;26.10;91.30
73360;DHT22;63092;43.582;19.528;2023-07-13T07:43:28;26.00;91.20
73360;DHT22;63092;43.582;19.528;2023-07-13T07:45:54;26.00;91.60
73360;DHT22;63092;43.582;19.528;2023-07-13T07:48:20;26.10;91.90
73360;DHT22;63092;43.582;19.528;2023-07-13T07:53:12;26.40;91.80
73360;DHT22;63092;43.582;19.528;2023-07-13T07:55:38;26.50;91.30
73360;DHT22;63092;43.582;19.528;2023-07-13T07:58:05;26.60;90.70
73360;DHT22;63092;43.582;19.528;2023-07-13T08:00:31;26.60;90.40
73360;DHT22;63092;43.582;19.528;2023-07-13T08:02:58;26.60;91.00
73360;DHT22;63092;43.582;19.528;2023-07-13T08:05:24;26.80;90.90
73360;DHT22;63092;43.582;19.528;2023-07-13T08:07:50;26.80;91.20
73360;DHT22;63092;43.582;19.528;2023-07-13T08:10:16;27.10;91.20
73360;DHT22;63092;43.582;19.528;2023-07-13T08:12:42;27.20;90.90
73360;DHT22;63092;43.582;19.528;2023-07-13T08:15:12;27.30;91.00
73360;DHT22;63092;43.582;19.528;2023-07-13T08:17:39;27.40;90.80
73360;DHT22;63092;43.582;19.528;2023-07-13T08:20:05;27.50;89.70
73360;DHT22;63092;43.582;19.528;2023-07-13T08:22:31;27.70;90.70
73360;DHT22;63092;43.582;19.528;2023-07-13T08:24:57;27.80;90.10
73360;DHT22;63092;43.582;19.528;2023-07-13T08:29:49;28.00;88.10
73360;DHT22;63092;43.582;19.528;2023-07-13T08:32:16;28.20;88.90
73360;DHT22;63092;43.582;19.528;2023-07-13T08:34:42;28.30;87.50
73360;DHT22;63092;43.582;19.528;2023-07-13T08:42:07;28.80;84.60
73360;DHT22;63092;43.582;19.528;2023-07-13T08:47:44;29.00;84.80
73360;DHT22;63092;43.582;19.528;2023-07-13T08:50:17;29.00;84.80
73360;DHT22;63092;43.582;19.528;2023-07-13T08:52:44;29.00;84.60
73360;DHT22;63092;43.582;19.528;2023-07-13T08:55:24;29.20;85.30
73360;DHT22;63092;43.582;19.528;2023-07-13T08:58:15;29.40;84.80
73360;DHT22;63092;43.582;19.528;2023-07-13T09:03:24;29.60;83.90
73360;DHT22;63092;43.582;19.528;2023-07-13T09:05:56;29.40;83.10
73360;DHT22;63092;43.582;19.528;2023-07-13T09:08:58;29.30;83.90
73360;DHT22;63092;43.582;19.528;2023-07-13T09:16:37;29.60;84.20
73360;DHT22;63092;43.582;19.528;2023-07-13T09:19:05;29.70;82.90
73360;DHT22;63092;43.582;19.528;2023-07-13T09:27:31;30.10;82.90
73360;DHT22;63092;43.582;19.528;2023-07-13T09:32:42;30.40;81.20
73360;DHT22;63092;43.582;19.528;2023-07-13T09:35:13;30.50;79.70
73360;DHT22;63092;43.582;19.528;2023-07-13T09:37:45;30.60;79.90
73360;DHT22;63092;43.582;19.528;2023-07-13T09:40:28;30.70;79.30
73360;DHT22;63092;43.582;19.528;2023-07-13T09:42:56;30.80;79.10
73360;DHT22;63092;43.582;19.528;2023-07-13T09:47:59;30.90;77.60
73360;DHT22;63092;43.582;19.528;2023-07-13T09:50:28;31.10;79.10
73360;DHT22;63092;43.582;19.528;2023-07-13T09:52:55;31.30;77.90
73360;DHT22;63092;43.582;19.528;2023-07-13T09:55:39;31.40;77.80
73360;DHT22;63092;43.582;19.528;2023-07-13T10:00:38;31.50;75.50
73360;DHT22;63092;43.582;19.528;2023-07-13T10:03:18;31.60;76.40
73360;DHT22;63092;43.582;19.528;2023-07-13T10:05:46;31.70;75.90
73360;DHT22;63092;43.582;19.528;2023-07-13T10:08:26;31.80;75.40
73360;DHT22;63092;43.582;19.528;2023-07-13T10:11:26;31.90;74.80
73360;DHT22;63092;43.582;19.528;2023-07-13T10:14:00;31.90;75.00
73360;DHT22;63092;43.582;19.528;2023-07-13T10:16:33;32.00;73.70
73360;DHT22;63092;43.582;19.528;2023-07-13T10:19:05;32.10;75.40
73360;DHT22;63092;43.582;19.528;2023-07-13T10:21:36;32.20;76.00
73360;DHT22;63092;43.582;19.528;2023-07-13T10:24:17;32.30;74.70
73360;DHT22;63092;43.582;19.528;2023-07-13T10:27:18;32.40;75.20
73360;DHT22;63092;43.582;19.528;2023-07-13T10:29:51;32.50;76.40
73360;DHT22;63092;43.582;19.528;2023-07-13T10:32:20;32.60;73.00
73360;DHT22;63092;43.582;19.528;2023-07-13T10:34:48;32.70;73.20
73360;DHT22;63092;43.582;19.528;2023-07-13T10:37:20;32.80;72.30
73360;DHT22;63092;43.582;19.528;2023-07-13T10:39:48;32.80;72.20
73360;DHT22;63092;43.582;19.528;2023-07-13T10:42:25;32.90;72.70
73360;DHT22;63092;43.582;19.528;2023-07-13T10:44:52;33.00;71.20
73360;DHT22;63092;43.582;19.528;2023-07-13T10:47:18;33.10;71.90
73360;DHT22;63092;43.582;19.528;2023-07-13T10:49:45;33.10;71.60
73360;DHT22;63092;43.582;19.528;2023-07-13T10:52:47;33.20;71.30
73360;DHT22;63092;43.582;19.528;2023-07-13T10:55:34;33.50;70.50
73360;DHT22;63092;43.582;19.528;2023-07-13T11:03:35;33.60;71.70
73360;DHT22;63092;43.582;19.528;2023-07-13T11:09:03;33.60;70.60
73360;DHT22;63092;43.582;19.528;2023-07-13T11:24:55;34.10;71.00
73360;DHT22;63092;43.582;19.528;2023-07-13T11:28:21;34.20;71.30
73360;DHT22;63092;43.582;19.528;2023-07-13T11:30:34;34.20;71.10
73360;DHT22;63092;43.582;19.528;2023-07-13T11:33:11;34.20;71.00
73360;DHT22;63092;43.582;19.528;2023-07-13T11:35:48;34.40;72.10
73360;DHT22;63092;43.582;19.528;2023-07-13T11:41:27;34.40;72.20
73360;DHT22;63092;43.582;19.528;2023-07-13T11:44:14;34.50;71.20
73360;DHT22;63092;43.582;19.528;2023-07-13T11:46:46;34.50;70.90
73360;DHT22;63092;43.582;19.528;2023-07-13T11:49:15;34.50;71.50
73360;DHT22;63092;43.582;19.528;2023-07-13T11:51:42;34.60;72.50
73360;DHT22;63092;43.582;19.528;2023-07-13T11:54:41;34.70;73.50
73360;DHT22;63092;43.582;19.528;2023-07-13T11:57:22;34.70;72.20
73360;DHT22;63092;43.582;19.528;2023-07-13T11:59:50;34.80;72.60
73360;DHT22;63092;43.582;19.528;2023-07-13T12:02:36;34.80;74.90
73360;DHT22;63092;43.582;19.528;2023-07-13T12:05:04;34.90;73.10
73360;DHT22;63092;43.582;19.528;2023-07-13T12:07:32;34.90;72.20
73360;DHT22;63092;43.582;19.528;2023-07-13T12:10:03;35.00;72.10
73360;DHT22;63092;43.582;19.528;2023-07-13T12:12:36;34.90;72.40
73360;DHT22;63092;43.582;19.528;2023-07-13T12:15:07;35.10;72.10
73360;DHT22;63092;43.582;19.528;2023-07-13T12:17:34;35.10;71.70
73360;DHT22;63092;43.582;19.528;2023-07-13T12:20:16;35.20;72.90
73360;DHT22;63092;43.582;19.528;2023-07-13T12:22:46;35.20;71.30
73360;DHT22;63092;43.582;19.528;2023-07-13T12:25:12;35.20;72.50
73360;DHT22;63092;43.582;19.528;2023-07-13T12:27:39;35.30;70.00
73360;DHT22;63092;43.582;19.528;2023-07-13T12:30:30;35.20;70.40
73360;DHT22;63092;43.582;19.528;2023-07-13T12:33:17;35.30;70.70
73360;DHT22;63092;43.582;19.528;2023-07-13T12:35:50;35.50;72.10
73360;DHT22;63092;43.582;19.528;2023-07-13T12:40:50;35.50;72.80
73360;DHT22;63092;43.582;19.528;2023-07-13T12:43:20;35.50;71.60
73360;DHT22;63092;43.582;19.528;2023-07-13T12:46:02;35.60;70.40
73360;DHT22;63092;43.582;19.528;2023-07-13T12:48:28;35.50;69.60
73360;DHT22;63092;43.582;19.528;2023-07-13T12:50:55;35.60;68.90
73360;DHT22;63092;43.582;19.528;2023-07-13T12:53:23;35.60;69.80
73360;DHT22;63092;43.582;19.528;2023-07-13T12:55:56;35.60;70.10
73360;DHT22;63092;43.582;19.528;2023-07-13T12:58:27;35.60;70.20
73360;DHT22;63092;43.582;19.528;2023-07-13T13:00:55;35.70;69.90
73360;DHT22;63092;43.582;19.528;2023-07-13T13:03:39;35.70;69.00
73360;DHT22;63092;43.582;19.528;2023-07-13T13:08:46;35.80;69.50
73360;DHT22;63092;43.582;19.528;2023-07-13T13:11:16;35.80;69.70
73360;DHT22;63092;43.582;19.528;2023-07-13T13:13:42;35.90;71.20
73360;DHT22;63092;43.582;19.528;2023-07-13T13:16:20;35.90;71.30
73360;DHT22;63092;43.582;19.528;2023-07-13T13:18:47;35.90;69.40
73360;DHT22;63092;43.582;19.528;2023-07-13T13:21:13;35.90;69.10
73360;DHT22;63092;43.582;19.528;2023-07-13T13:23:39;35.90;68.70
73360;DHT22;63092;43.582;19.528;2023-07-13T13:26:12;35.80;68.40
73360;DHT22;63092;43.582;19.528;2023-07-13T13:28:37;35.90;69.20
73360;DHT22;63092;43.582;19.528;2023-07-13T13:31:03;35.80;68.20
73360;DHT22;63092;43.582;19.528;2023-07-13T13:33:29;35.70;68.50
73360;DHT22;63092;43.582;19.528;2023-07-13T13:35:56;35.80;69.00
73360;DHT22;63092;43.582;19.528;2023-07-13T13:38:26;35.80;69.70
73360;DHT22;63092;43.582;19.528;2023-07-13T13:40:52;35.80;68.80
73360;DHT22;63092;43.582;19.528;2023-07-13T13:43:22;35.90;70.50
73360;DHT22;63092;43.582;19.528;2023-07-13T13:45:52;35.90;72.00
73360;DHT22;63092;43.582;19.528;2023-07-13T13:48:21;35.90;67.90
73360;DHT22;63092;43.582;19.528;2023-07-13T13:50:56;36.00;69.10
73360;DHT22;63092;43.582;19.528;2023-07-13T13:53:22;36.00;70.70
73360;DHT22;63092;43.582;19.528;2023-07-13T13:55:49;36.00;70.90
73360;DHT22;63092;43.582;19.528;2023-07-13T13:58:16;36.10;71.30
73360;DHT22;63092;43.582;19.528;2023-07-13T14:00:42;36.10;70.60
73360;DHT22;63092;43.582;19.528;2023-07-13T14:03:16;36.10;69.20
73360;DHT22;63092;43.582;19.528;2023-07-13T14:05:42;36.20;70.20
73360;DHT22;63092;43.582;19.528;2023-07-13T14:08:14;36.20;71.50
73360;DHT22;63092;43.582;19.528;2023-07-13T14:10:40;36.00;74.20
73360;DHT22;63092;43.582;19.528;2023-07-13T14:13:19;35.90;70.50
73360;DHT22;63092;43.582;19.528;2023-07-13T14:15:46;36.00;70.80
73360;DHT22;63092;43.582;19.528;2023-07-13T14:18:13;36.00;69.80
73360;DHT22;63092;43.582;19.528;2023-07-13T14:20:44;36.00;70.80
73360;DHT22;63092;43.582;19.528;2023-07-13T14:23:10;36.00;69.80
73360;DHT22;63092;43.582;19.528;2023-07-13T14:25:36;36.00;69.50
73360;DHT22;63092;43.582;19.528;2023-07-13T14:28:19;36.10;71.80
73360;DHT22;63092;43.582;19.528;2023-07-13T14:30:46;36.00;69.10
73360;DHT22;63092;43.582;19.528;2023-07-13T14:33:13;36.10;67.80
73360;DHT22;63092;43.582;19.528;2023-07-13T14:35:38;36.20;70.30
73360;DHT22;63092;43.582;19.528;2023-07-13T14:38:05;36.10;73.50
73360;DHT22;63092;43.582;19.528;2023-07-13T14:40:31;36.10;75.00
73360;DHT22;63092;43.582;19.528;2023-07-13T14:42:58;36.10;74.80
73360;DHT22;63092;43.582;19.528;2023-07-13T14:45:24;36.10;74.40
73360;DHT22;63092;43.582;19.528;2023-07-13T14:47:51;36.10;73.10
73360;DHT22;63092;43.582;19.528;2023-07-13T14:50:19;36.00;71.70
73360;DHT22;63092;43.582;19.528;2023-07-13T14:52:46;36.00;72.90
73360;DHT22;63092;43.582;19.528;2023-07-13T14:55:15;35.90;71.40
73360;DHT22;63092;43.582;19.528;2023-07-13T14:57:42;36.00;75.30
73360;DHT22;63092;43.582;19.528;2023-07-13T15:00:21;36.00;74.60
73360;DHT22;63092;43.582;19.528;2023-07-13T15:02:52;35.80;72.00
73360;DHT22;63092;43.582;19.528;2023-07-13T15:05:25;35.90;72.10
73360;DHT22;63092;43.582;19.528;2023-07-13T15:07:52;35.90;72.90
73360;DHT22;63092;43.582;19.528;2023-07-13T15:12:45;35.90;73.40
73360;DHT22;63092;43.582;19.528;2023-07-13T15:15:11;35.80;74.00
73360;DHT22;63092;43.582;19.528;2023-07-13T15:17:40;35.80;66.10
73360;DHT22;63092;43.582;19.528;2023-07-13T15:20:17;35.70;68.60
73360;DHT22;63092;43.582;19.528;2023-07-13T15:22:44;35.70;64.00
73360;DHT22;63092;43.582;19.528;2023-07-13T15:25:25;35.70;65.20
73360;DHT22;63092;43.582;19.528;2023-07-13T15:27:52;35.60;64.70
73360;DHT22;63092;43.582;19.528;2023-07-13T15:30:19;35.60;63.20
73360;DHT22;63092;43.582;19.528;2023-07-13T15:32:45;35.50;67.20
73360;DHT22;63092;43.582;19.528;2023-07-13T15:35:15;35.50;68.40
73360;DHT22;63092;43.582;19.528;2023-07-13T15:37:41;35.40;64.70
73360;DHT22;63092;43.582;19.528;2023-07-13T15:40:08;35.40;66.80
73360;DHT22;63092;43.582;19.528;2023-07-13T15:42:34;35.30;61.70
73360;DHT22;63092;43.582;19.528;2023-07-13T15:45:02;35.30;63.20
73360;DHT22;63092;43.582;19.528;2023-07-13T15:47:27;35.30;66.70
73360;DHT22;63092;43.582;19.528;2023-07-13T15:49:53;35.40;65.80
73360;DHT22;63092;43.582;19.528;2023-07-13T15:52:22;35.20;68.50
73360;DHT22;63092;43.582;19.528;2023-07-13T15:54:49;35.20;67.10
73360;DHT22;63092;43.582;19.528;2023-07-13T15:57:16;35.10;66.50
73360;DHT22;63092;43.582;19.528;2023-07-13T15:59:42;35.10;68.40
73360;DHT22;63092;43.582;19.528;2023-07-13T16:02:30;35.10;67.40
73360;DHT22;63092;43.582;19.528;2023-07-13T16:04:59;35.00;64.10
73360;DHT22;63092;43.582;19.528;2023-07-13T16:07:24;34.90;69.00
73360;DHT22;63092;43.582;19.528;2023-07-13T16:09:51;34.80;70.90
73360;DHT22;63092;43.582;19.528;2023-07-13T16:12:17;34.60;71.90
73360;DHT22;63092;43.582;19.528;2023-07-13T16:14:43;34.60;71.80
73360;DHT22;63092;43.582;19.528;2023-07-13T16:17:13;34.40;73.60
73360;DHT22;63092;43.582;19.528;2023-07-13T16:19:40;34.30;73.80
73360;DHT22;63092;43.582;19.528;2023-07-13T16:22:08;34.30;74.90
73360;DHT22;63092;43.582;19.528;2023-07-13T16:24:39;34.20;75.00
73360;DHT22;63092;43.582;19.528;2023-07-13T16:27:05;34.20;75.10
73360;DHT22;63092;43.582;19.528;2023-07-13T16:29:32;34.20;75.30
73360;DHT22;63092;43.582;19.528;2023-07-13T16:32:03;34.10;75.20
73360;DHT22;63092;43.582;19.528;2023-07-13T16:34:33;34.00;75.70
73360;DHT22;63092;43.582;19.528;2023-07-13T16:37:00;33.90;75.40
73360;DHT22;63092;43.582;19.528;2023-07-13T16:39:27;33.80;76.60
73360;DHT22;63092;43.582;19.528;2023-07-13T16:41:54;33.80;77.20
73360;DHT22;63092;43.582;19.528;2023-07-13T16:44:22;33.70;76.70
73360;DHT22;63092;43.582;19.528;2023-07-13T16:46:52;33.60;77.50
73360;DHT22;63092;43.582;19.528;2023-07-13T16:49:30;33.60;76.80